sensor_id;sensor_type;location;lat;lon;timestamp;pressure;altitude;pressure_sealevel;temperature;humidity
71770;BME280;66386;52.122;5.420;2023-02-12T00:00:49;103957.59;;;6.79;89.05
71770;BME280;66386;52.122;5.420;2023-02-12T00:03:17;103960.13;;;6.79;88.78
71770;BME280;66386;52.122;5.420;2023-02-12T00:05:43;103962.63;;;6.76;88.79
71770;BME280;66386;52.122;5.420;2023-02-12T00:08:10;103962.66;;;6.77;88.92
71770;BME280;66386;52.122;5.420;2023-02-12T00:10:43;103958.38;;;6.76;88.96
71770;BME280;66386;52.122;5.420;2023-02-12T00:13:10;103951.53;;;6.75;88.97
71770;BME280;66386;52.122;5.420;2023-02-12T00:15:39;103950.72;;;6.76;88.81
71770;BME280;66386;52.122;5.420;2023-02-12T00:18:05;103953.31;;;6.78;88.83
71770;BME280;66386;52.122;5.420;2023-02-12T00:20:32;103952.44;;;6.77;88.37
71770;BME280;66386;52.122;5.420;2023-02-12T00:22:58;103959.28;;;6.78;88.91
71770;BME280;66386;52.122;5.420;2023-02-12T00:25:25;103956.72;;;6.78;88.74
71770;BME280;66386;52.122;5.420;2023-02-12T00:27:51;103960.13;;;6.79;88.63
71770;BME280;66386;52.122;5.420;2023-02-12T00:30:18;103958.47;;;6.79;88.94
71770;BME280;66386;52.122;5.420;2023-02-12T00:32:45;103962.69;;;6.79;88.63
71770;BME280;66386;52.122;5.420;2023-02-12T00:35:11;103955.84;;;6.76;88.77
71770;BME280;66386;52.122;5.420;2023-02-12T00:37:38;103961.78;;;6.77;88.76
71770;BME280;66386;52.122;5.420;2023-02-12T00:40:05;103956.69;;;6.77;89.01
71770;BME280;66386;52.122;5.420;2023-02-12T00:42:32;103960.13;;;6.79;88.78
71770;BME280;66386;52.122;5.420;2023-02-12T00:44:58;103956.69;;;6.77;88.84
71770;BME280;66386;52.122;5.420;2023-02-12T00:47:25;103954.13;;;6.77;88.63
71770;BME280;66386;52.122;5.420;2023-02-12T00:49:51;103953.22;;;6.75;88.91
71770;BME280;66386;52.122;5.420;2023-02-12T00:52:18;103958.34;;;6.75;88.89
71770;BME280;66386;52.122;5.420;2023-02-12T00:54:44;103952.38;;;6.76;88.92
71770;BME280;66386;52.122;5.420;2023-02-12T00:57:11;103954.91;;;6.74;88.84
71770;BME280;66386;52.122;5.420;2023-02-12T00:59:38;103962.53;;;6.73;88.97
71770;BME280;66386;52.122;5.420;2023-02-12T01:02:05;103956.50;;;6.71;88.98
71770;BME280;66386;52.122;5.420;2023-02-12T01:04:31;103963.25;;;6.69;88.90
71770;BME280;66386;52.122;5.420;2023-02-12T01:06:58;103949.56;;;6.67;88.88
71770;BME280;66386;52.122;5.420;2023-02-12T01:09:25;103958.84;;;6.63;88.82
71770;BME280;66386;52.122;5.420;2023-02-12T01:11:51;103957.06;;;6.60;88.98
71770;BME280;66386;52.122;5.420;2023-02-12T01:14:17;103955.38;;;6.61;89.22
71770;BME280;66386;52.122;5.420;2023-02-12T01:16:44;103956.16;;;6.60;89.16
71770;BME280;66386;52.122;5.420;2023-02-12T01:19:11;103957.00;;;6.59;89.21
71770;BME280;66386;52.122;5.420;2023-02-12T01:21:37;103952.75;;;6.59;89.29
71770;BME280;66386;52.122;5.420;2023-02-12T01:24:04;103955.22;;;6.56;89.17
71770;BME280;66386;52.122;5.420;2023-02-12T01:26:31;103957.00;;;6.59;89.39
71770;BME280;66386;52.122;5.420;2023-02-12T01:29:01;103955.31;;;6.59;89.33
71770;BME280;66386;52.122;5.420;2023-02-12T01:31:31;103962.09;;;6.57;89.17
71770;BME280;66386;52.122;5.420;2023-02-12T01:33:58;103958.59;;;6.55;89.18
71770;BME280;66386;52.122;5.420;2023-02-12T01:36:27;103959.47;;;6.56;89.32
71770;BME280;66386;52.122;5.420;2023-02-12T01:38:54;103949.22;;;6.54;89.21
71770;BME280;66386;52.122;5.420;2023-02-12T01:41:23;103953.41;;;6.52;89.50
71770;BME280;66386;52.122;5.420;2023-02-12T01:46:41;103955.91;;;6.51;89.39
71770;BME280;66386;52.122;5.420;2023-02-12T01:49:20;103951.59;;;6.50;89.39
71770;BME280;66386;52.122;5.420;2023-02-12T01:51:50;103956.72;;;6.50;89.50
71770;BME280;66386;52.122;5.420;2023-02-12T01:54:19;103955.84;;;6.49;89.45
71770;BME280;66386;52.122;5.420;2023-02-12T01:56:46;103954.16;;;6.50;89.47
71770;BME280;66386;52.122;5.420;2023-02-12T01:59:13;103952.41;;;6.47;89.55
71770;BME280;66386;52.122;5.420;2023-02-12T02:01:39;103959.97;;;6.44;89.64
71770;BME280;66386;52.122;5.420;2023-02-12T02:04:10;103955.63;;;6.41;89.58
71770;BME280;66386;52.122;5.420;2023-02-12T02:06:43;103951.28;;;6.39;89.42
71770;BME280;66386;52.122;5.420;2023-02-12T02:09:11;103942.69;;;6.35;89.41
71770;BME280;66386;52.122;5.420;2023-02-12T02:11:38;103951.06;;;6.31;89.83
71770;BME280;66386;52.122;5.420;2023-02-12T02:14:23;103948.28;;;6.25;89.56
71770;BME280;66386;52.122;5.420;2023-02-12T02:22:40;103956.53;;;6.16;89.97
71770;BME280;66386;52.122;5.420;2023-02-12T02:33:18;103947.19;;;6.17;89.95
71770;BME280;66386;52.122;5.420;2023-02-12T02:36:06;103951.41;;;6.16;90.00
71770;BME280;66386;52.122;5.420;2023-02-12T02:38:42;103942.00;;;6.14;90.13
71770;BME280;66386;52.122;5.420;2023-02-12T02:41:18;103950.56;;;6.16;90.19
71770;BME280;66386;52.122;5.420;2023-02-12T02:43:49;103943.72;;;6.15;90.14
71770;BME280;66386;52.122;5.420;2023-02-12T02:46:24;103942.03;;;6.15;90.09
71770;BME280;66386;52.122;5.420;2023-02-12T02:48:57;103933.44;;;6.13;90.17
71770;BME280;66386;52.122;5.420;2023-02-12T02:51:29;103943.56;;;6.10;90.09
71770;BME280;66386;52.122;5.420;2023-02-12T02:56:28;103932.44;;;6.08;90.36
71770;BME280;66386;52.122;5.420;2023-02-12T02:59:03;103941.03;;;6.10;90.21
71770;BME280;66386;52.122;5.420;2023-02-12T03:01:47;103932.50;;;6.09;90.51
71770;BME280;66386;52.122;5.420;2023-02-12T03:04:40;103941.03;;;6.10;90.42
71770;BME280;66386;52.122;5.420;2023-02-12T03:07:12;103936.75;;;6.09;90.34
71770;BME280;66386;52.122;5.420;2023-02-12T03:09:43;103929.91;;;6.08;90.41
71770;BME280;66386;52.122;5.420;2023-02-12T03:12:16;103926.47;;;6.07;90.34
71770;BME280;66386;52.122;5.420;2023-02-12T03:14:50;103929.81;;;6.05;90.17
71770;BME280;66386;52.122;5.420;2023-02-12T03:17:26;103930.66;;;6.05;90.44
71770;BME280;66386;52.122;5.420;2023-02-12T03:19:59;103928.16;;;6.07;90.58
71770;BME280;66386;52.122;5.420;2023-02-12T03:22:30;103925.56;;;6.05;90.66
71770;BME280;66386;52.122;5.420;2023-02-12T03:25:11;103933.25;;;6.07;90.39
71770;BME280;66386;52.122;5.420;2023-02-12T03:27:47;103922.25;;;6.08;90.54
71770;BME280;66386;52.122;5.420;2023-02-12T03:30:15;103928.19;;;6.08;90.52
71770;BME280;66386;52.122;5.420;2023-02-12T03:33:43;103936.75;;;6.09;90.51
71770;BME280;66386;52.122;5.420;2023-02-12T03:35:54;103940.22;;;6.11;90.75
71770;BME280;66386;52.122;5.420;2023-02-12T03:38:46;103942.75;;;6.11;90.63
71770;BME280;66386;52.122;5.420;2023-02-12T03:41:21;103939.31;;;6.09;90.73
71770;BME280;66386;52.122;5.420;2023-02-12T03:43:52;103940.97;;;6.08;90.59
71770;BME280;66386;52.122;5.420;2023-02-12T03:46:44;103940.06;;;6.06;90.64
71770;BME280;66386;52.122;5.420;2023-02-12T03:49:21;103935.81;;;6.07;90.60
71770;BME280;66386;52.122;5.420;2023-02-12T03:51:49;103941.69;;;6.04;90.68
71770;BME280;66386;52.122;5.420;2023-02-12T03:54:17;103941.63;;;6.03;90.85
71770;BME280;66386;52.122;5.420;2023-02-12T03:56:53;103937.38;;;6.02;90.81
71770;BME280;66386;52.122;5.420;2023-02-12T03:59:21;103944.16;;;6.01;90.98
71770;BME280;66386;52.122;5.420;2023-02-12T04:01:51;103949.25;;;6.01;90.98
71770;BME280;66386;52.122;5.420;2023-02-12T04:04:18;103955.28;;;6.03;90.97
71770;BME280;66386;52.122;5.420;2023-02-12T04:06:46;103954.50;;;6.06;90.91
71770;BME280;66386;52.122;5.420;2023-02-12T04:09:14;103957.94;;;6.06;90.96
71770;BME280;66386;52.122;5.420;2023-02-12T04:12:09;103957.84;;;6.03;90.96
71770;BME280;66386;52.122;5.420;2023-02-12T04:17:40;103962.06;;;6.03;90.87
71770;BME280;66386;52.122;5.420;2023-02-12T04:20:19;103956.09;;;6.02;91.07
71770;BME280;66386;52.122;5.420;2023-02-12T04:30:44;103961.06;;;5.98;91.09
71770;BME280;66386;52.122;5.420;2023-02-12T04:33:17;103967.91;;;5.99;90.93
71770;BME280;66386;52.122;5.420;2023-02-12T04:35:50;103974.69;;;5.98;91.11
71770;BME280;66386;52.122;5.420;2023-02-12T04:38:24;103975.50;;;5.97;91.09
71770;BME280;66386;52.122;5.420;2023-02-12T04:40:52;103971.28;;;5.98;91.02
71770;BME280;66386;52.122;5.420;2023-02-12T04:43:30;103970.38;;;5.97;91.16
71770;BME280;66386;52.122;5.420;2023-02-12T04:45:56;103972.06;;;5.97;91.07
71770;BME280;66386;52.122;5.420;2023-02-12T04:48:23;103979.66;;;5.95;91.15
71770;BME280;66386;52.122;5.420;2023-02-12T04:50:50;103978.84;;;5.96;91.04
71770;BME280;66386;52.122;5.420;2023-02-12T04:53:17;103975.41;;;5.95;91.14
71770;BME280;66386;52.122;5.420;2023-02-12T04:55:44;103984.81;;;5.97;91.17
71770;BME280;66386;52.122;5.420;2023-02-12T04:58:10;103978.94;;;5.98;91.03
71770;BME280;66386;52.122;5.420;2023-02-12T05:00:37;103972.94;;;5.97;91.09
71770;BME280;66386;52.122;5.420;2023-02-12T05:03:03;103973.03;;;5.99;91.31
71770;BME280;66386;52.122;5.420;2023-02-12T05:05:30;103972.19;;;6.00;91.08
71770;BME280;66386;52.122;5.420;2023-02-12T05:07:57;103977.28;;;6.00;91.02
71770;BME280;66386;52.122;5.420;2023-02-12T05:10:23;103977.28;;;6.00;91.06
71770;BME280;66386;52.122;5.420;2023-02-12T05:12:53;103984.13;;;6.01;91.09
71770;BME280;66386;52.122;5.420;2023-02-12T05:15:21;103988.38;;;6.00;91.08
71770;BME280;66386;52.122;5.420;2023-02-12T05:17:47;103990.94;;;6.00;91.23
71770;BME280;66386;52.122;5.420;2023-02-12T05:20:14;103979.84;;;6.00;91.17
71770;BME280;66386;52.122;5.420;2023-02-12T05:22:40;103978.19;;;6.00;91.02
71770;BME280;66386;52.122;5.420;2023-02-12T05:25:07;103978.19;;;6.00;91.11
71770;BME280;66386;52.122;5.420;2023-02-12T05:27:33;103986.50;;;5.96;91.23
71770;BME280;66386;52.122;5.420;2023-02-12T05:29:59;103988.19;;;5.95;91.14
71770;BME280;66386;52.122;5.420;2023-02-12T05:32:26;103991.56;;;5.94;91.10
71770;BME280;66386;52.122;5.420;2023-02-12T05:34:52;103989.00;;;5.94;90.90
71770;BME280;66386;52.122;5.420;2023-02-12T05:37:19;103987.28;;;5.93;91.37
71770;BME280;66386;52.122;5.420;2023-02-12T05:39:48;103992.38;;;5.93;91.31
71770;BME280;66386;52.122;5.420;2023-02-12T05:42:14;103990.69;;;5.94;91.33
71770;BME280;66386;52.122;5.420;2023-02-12T05:44:41;103994.13;;;5.94;91.49
71770;BME280;66386;52.122;5.420;2023-02-12T05:47:07;103990.72;;;5.95;91.28
71770;BME280;66386;52.122;5.420;2023-02-12T05:49:34;103987.31;;;5.95;91.12
71770;BME280;66386;52.122;5.420;2023-02-12T05:52:00;103992.41;;;5.95;91.20
71770;BME280;66386;52.122;5.420;2023-02-12T05:54:27;103994.13;;;5.94;91.06
71770;BME280;66386;52.122;5.420;2023-02-12T05:56:53;103990.69;;;5.94;91.18
71770;BME280;66386;52.122;5.420;2023-02-12T05:59:21;103993.19;;;5.92;91.09
71770;BME280;66386;52.122;5.420;2023-02-12T06:01:50;103994.94;;;5.93;91.31
71770;BME280;66386;52.122;5.420;2023-02-12T06:04:22;103989.81;;;5.93;91.45
71770;BME280;66386;52.122;5.420;2023-02-12T06:06:53;103987.31;;;5.95;91.36
71770;BME280;66386;52.122;5.420;2023-02-12T06:09:21;103984.81;;;5.97;90.98
71770;BME280;66386;52.122;5.420;2023-02-12T06:11:48;103994.16;;;5.96;90.97
71770;BME280;66386;52.122;5.420;2023-02-12T06:14:16;103994.25;;;5.98;91.11
71770;BME280;66386;52.122;5.420;2023-02-12T06:16:44;104000.13;;;5.97;91.16
71770;BME280;66386;52.122;5.420;2023-02-12T06:19:11;103994.94;;;5.93;90.93
71770;BME280;66386;52.122;5.420;2023-02-12T06:21:38;104004.19;;;5.90;91.18
71770;BME280;66386;52.122;5.420;2023-02-12T06:24:04;103998.25;;;5.91;91.03
71770;BME280;66386;52.122;5.420;2023-02-12T06:26:31;103997.44;;;5.92;91.15
71770;BME280;66386;52.122;5.420;2023-02-12T06:28:58;103997.44;;;5.92;90.90
71770;BME280;66386;52.122;5.420;2023-02-12T06:31:27;103997.47;;;5.93;90.93
71770;BME280;66386;52.122;5.420;2023-02-12T06:33:57;103987.28;;;5.93;90.92
71770;BME280;66386;52.122;5.420;2023-02-12T06:36:24;103983.84;;;5.93;90.91
71770;BME280;66386;52.122;5.420;2023-02-12T06:38:51;103990.63;;;5.92;90.85
71770;BME280;66386;52.122;5.420;2023-02-12T06:41:20;103991.47;;;5.91;90.80
71770;BME280;66386;52.122;5.420;2023-02-12T06:43:47;103999.06;;;5.90;90.67
71770;BME280;66386;52.122;5.420;2023-02-12T06:46:13;103995.63;;;5.89;90.91
71770;BME280;66386;52.122;5.420;2023-02-12T06:48:40;104004.09;;;5.88;90.88
71770;BME280;66386;52.122;5.420;2023-02-12T06:51:10;104007.50;;;5.87;90.66
71770;BME280;66386;52.122;5.420;2023-02-12T06:53:37;104002.38;;;5.87;90.78
71770;BME280;66386;52.122;5.420;2023-02-12T06:56:05;104005.84;;;5.89;90.56
71770;BME280;66386;52.122;5.420;2023-02-12T06:58:32;104010.16;;;5.90;90.60
71770;BME280;66386;52.122;5.420;2023-02-12T07:01:10;104011.84;;;5.90;90.79
71770;BME280;66386;52.122;5.420;2023-02-12T07:03:43;104021.97;;;5.88;90.57
71770;BME280;66386;52.122;5.420;2023-02-12T07:06:12;104018.56;;;5.88;90.62
71770;BME280;66386;52.122;5.420;2023-02-12T07:08:39;104013.47;;;5.88;90.58
71770;BME280;66386;52.122;5.420;2023-02-12T07:11:06;104019.41;;;5.88;90.62
71770;BME280;66386;52.122;5.420;2023-02-12T07:13:33;104014.41;;;5.90;90.62
71770;BME280;66386;52.122;5.420;2023-02-12T07:16:08;104016.16;;;5.92;90.32
71770;BME280;66386;52.122;5.420;2023-02-12T07:18:35;104021.25;;;5.92;90.60
71770;BME280;66386;52.122;5.420;2023-02-12T07:21:03;104028.13;;;5.93;90.31
71770;BME280;66386;52.122;5.420;2023-02-12T07:23:31;104035.81;;;5.95;90.57
71770;BME280;66386;52.122;5.420;2023-02-12T07:26:01;104027.34;;;5.96;90.35
71770;BME280;66386;52.122;5.420;2023-02-12T07:28:28;104039.25;;;5.95;90.32
71770;BME280;66386;52.122;5.420;2023-02-12T07:30:54;104040.94;;;5.95;90.28
71770;BME280;66386;52.122;5.420;2023-02-12T07:33:21;104046.09;;;5.97;90.59
71770;BME280;66386;52.122;5.420;2023-02-12T07:35:47;104047.88;;;5.98;90.50
71770;BME280;66386;52.122;5.420;2023-02-12T07:38:13;104044.50;;;5.99;90.59
71770;BME280;66386;52.122;5.420;2023-02-12T07:40:40;104043.63;;;5.98;90.57
71770;BME280;66386;52.122;5.420;2023-02-12T07:43:06;104040.25;;;5.99;90.32
71770;BME280;66386;52.122;5.420;2023-02-12T07:45:33;104042.91;;;6.02;90.30
71770;BME280;66386;52.122;5.420;2023-02-12T07:47:59;104044.66;;;6.03;90.30
71770;BME280;66386;52.122;5.420;2023-02-12T07:50:26;104049.88;;;6.06;90.34
71770;BME280;66386;52.122;5.420;2023-02-12T07:52:52;104044.81;;;6.08;90.30
71770;BME280;66386;52.122;5.420;2023-02-12T07:55:18;104047.38;;;6.08;90.20
71770;BME280;66386;52.122;5.420;2023-02-12T07:57:45;104055.94;;;6.10;90.17
71770;BME280;66386;52.122;5.420;2023-02-12T08:00:12;104049.22;;;6.12;89.78
71770;BME280;66386;52.122;5.420;2023-02-12T08:02:39;104057.81;;;6.16;89.93
71770;BME280;66386;52.122;5.420;2023-02-12T08:05:06;104062.06;;;6.15;89.78
71770;BME280;66386;52.122;5.420;2023-02-12T08:07:32;104061.19;;;6.15;89.86
71770;BME280;66386;52.122;5.420;2023-02-12T08:09:59;104067.22;;;6.17;89.89
71770;BME280;66386;52.122;5.420;2023-02-12T08:12:26;104073.25;;;6.19;89.69
71770;BME280;66386;52.122;5.420;2023-02-12T08:14:52;104072.28;;;6.15;89.80
71770;BME280;66386;52.122;5.420;2023-02-12T08:17:19;104068.97;;;6.18;89.85
71770;BME280;66386;52.122;5.420;2023-02-12T08:19:45;104079.28;;;6.21;89.63
71770;BME280;66386;52.122;5.420;2023-02-12T08:22:12;104069.13;;;6.22;89.73
71770;BME280;66386;52.122;5.420;2023-02-12T08:24:38;104071.63;;;6.21;89.67
71770;BME280;66386;52.122;5.420;2023-02-12T08:27:05;104075.91;;;6.22;89.87
71770;BME280;66386;52.122;5.420;2023-02-12T08:29:32;104070.97;;;6.26;89.57
71770;BME280;66386;52.122;5.420;2023-02-12T08:32:00;104078.78;;;6.31;89.53
71770;BME280;66386;52.122;5.420;2023-02-12T08:34:29;104084.00;;;6.34;89.31
71770;BME280;66386;52.122;5.420;2023-02-12T08:36:57;104083.19;;;6.35;89.20
71770;BME280;66386;52.122;5.420;2023-02-12T08:39:25;104082.28;;;6.35;89.19
71770;BME280;66386;52.122;5.420;2023-02-12T08:41:56;104093.41;;;6.35;89.55
71770;BME280;66386;52.122;5.420;2023-02-12T08:44:23;104098.63;;;6.38;89.33
71770;BME280;66386;52.122;5.420;2023-02-12T08:46:51;104099.56;;;6.42;89.00
71770;BME280;66386;52.122;5.420;2023-02-12T08:49:20;104097.13;;;6.45;89.05
71770;BME280;66386;52.122;5.420;2023-02-12T08:51:53;104098.91;;;6.47;88.91
71770;BME280;66386;52.122;5.420;2023-02-12T08:54:22;104106.63;;;6.49;88.90
71770;BME280;66386;52.122;5.420;2023-02-12T08:56:49;104098.94;;;6.49;88.82
71770;BME280;66386;52.122;5.420;2023-02-12T08:59:19;104102.38;;;6.50;89.02
71770;BME280;66386;52.122;5.420;2023-02-12T09:01:49;104112.59;;;6.50;89.14
71770;BME280;66386;52.122;5.420;2023-02-12T09:04:18;104103.25;;;6.50;89.00
71770;BME280;66386;52.122;5.420;2023-02-12T09:06:47;104106.72;;;6.52;89.02
71770;BME280;66386;52.122;5.420;2023-02-12T09:09:14;104103.31;;;6.52;89.06
71770;BME280;66386;52.122;5.420;2023-02-12T09:11:41;104108.50;;;6.55;88.59
71770;BME280;66386;52.122;5.420;2023-02-12T09:14:12;104110.34;;;6.59;88.71
71770;BME280;66386;52.122;5.420;2023-02-12T09:16:39;104102.75;;;6.60;88.82
71770;BME280;66386;52.122;5.420;2023-02-12T09:19:06;104107.09;;;6.63;88.66
71770;BME280;66386;52.122;5.420;2023-02-12T09:21:33;104106.34;;;6.67;88.78
71770;BME280;66386;52.122;5.420;2023-02-12T09:24:00;104108.03;;;6.67;88.74
71770;BME280;66386;52.122;5.420;2023-02-12T09:26:28;104106.38;;;6.69;88.57
71770;BME280;66386;52.122;5.420;2023-02-12T09:28:54;104108.94;;;6.69;88.70
71770;BME280;66386;52.122;5.420;2023-02-12T09:31:23;104116.63;;;6.69;88.47
71770;BME280;66386;52.122;5.420;2023-02-12T09:33:54;104112.44;;;6.71;88.20
71770;BME280;66386;52.122;5.420;2023-02-12T09:36:23;104115.09;;;6.74;88.40
71770;BME280;66386;52.122;5.420;2023-02-12T09:38:49;104108.22;;;6.73;88.36
71770;BME280;66386;52.122;5.420;2023-02-12T09:41:33;104110.06;;;6.77;88.23
71770;BME280;66386;52.122;5.420;2023-02-12T09:51:51;104106.13;;;6.87;87.87
71770;BME280;66386;52.122;5.420;2023-02-12T09:54:22;104109.63;;;6.90;88.04
71770;BME280;66386;52.122;5.420;2023-02-12T09:56:55;104113.09;;;6.91;87.55
71770;BME280;66386;52.122;5.420;2023-02-12T09:59:32;104111.47;;;6.94;87.59
71770;BME280;66386;52.122;5.420;2023-02-12T10:02:00;104112.38;;;6.96;87.46
71770;BME280;66386;52.122;5.420;2023-02-12T10:04:27;104120.16;;;6.99;87.30
71770;BME280;66386;52.122;5.420;2023-02-12T10:12:52;104107.66;;;7.09;87.06
71770;BME280;66386;52.122;5.420;2023-02-12T10:15:43;104106.00;;;7.11;86.90
71770;BME280;66386;52.122;5.420;2023-02-12T10:24:04;104115.63;;;7.20;86.41
71770;BME280;66386;52.122;5.420;2023-02-12T10:26:37;104112.34;;;7.24;86.46
71770;BME280;66386;52.122;5.420;2023-02-12T10:29:16;104108.19;;;7.26;86.42
71770;BME280;66386;52.122;5.420;2023-02-12T10:31:47;104112.44;;;7.27;86.26
71770;BME280;66386;52.122;5.420;2023-02-12T10:34:30;104112.44;;;7.27;85.80
71770;BME280;66386;52.122;5.420;2023-02-12T10:37:23;104109.16;;;7.31;85.90
71770;BME280;66386;52.122;5.420;2023-02-12T10:40:25;104118.66;;;7.35;85.92
71770;BME280;66386;52.122;5.420;2023-02-12T10:42:57;104119.63;;;7.39;85.72
71770;BME280;66386;52.122;5.420;2023-02-12T10:45:35;104118.81;;;7.40;85.78
71770;BME280;66386;52.122;5.420;2023-02-12T10:48:10;104117.09;;;7.40;85.46
71770;BME280;66386;52.122;5.420;2023-02-12T10:53:23;104110.44;;;7.45;85.07
71770;BME280;66386;52.122;5.420;2023-02-12T10:56:05;104107.88;;;7.45;84.74
71770;BME280;66386;52.122;5.420;2023-02-12T10:58:35;104112.22;;;7.48;84.74
71770;BME280;66386;52.122;5.420;2023-02-12T11:01:01;104112.22;;;7.48;84.76
71770;BME280;66386;52.122;5.420;2023-02-12T11:03:30;104102.94;;;7.51;84.68
71770;BME280;66386;52.122;5.420;2023-02-12T11:06:12;104102.97;;;7.53;84.50
71770;BME280;66386;52.122;5.420;2023-02-12T11:08:39;104108.19;;;7.56;84.77
71770;BME280;66386;52.122;5.420;2023-02-12T11:11:15;104108.25;;;7.59;84.54
71770;BME280;66386;52.122;5.420;2023-02-12T11:13:46;104112.56;;;7.60;84.21
71770;BME280;66386;52.122;5.420;2023-02-12T11:16:33;104120.31;;;7.63;84.20
71770;BME280;66386;52.122;5.420;2023-02-12T11:19:06;104111.00;;;7.65;84.15
71770;BME280;66386;52.122;5.420;2023-02-12T11:21:33;104106.78;;;7.67;83.88
71770;BME280;66386;52.122;5.420;2023-02-12T11:24:25;104100.84;;;7.68;84.01
71770;BME280;66386;52.122;5.420;2023-02-12T11:27:21;104094.13;;;7.72;83.86
71770;BME280;66386;52.122;5.420;2023-02-12T11:32:31;104103.53;;;7.73;83.00
71770;BME280;66386;52.122;5.420;2023-02-12T11:35:19;104101.84;;;7.74;82.85
71770;BME280;66386;52.122;5.420;2023-02-12T11:37:54;104092.53;;;7.76;82.37
71770;BME280;66386;52.122;5.420;2023-02-12T11:40:27;104094.22;;;7.77;82.37
71770;BME280;66386;52.122;5.420;2023-02-12T11:42:57;104098.63;;;7.81;82.27
71770;BME280;66386;52.122;5.420;2023-02-12T11:45:33;104089.34;;;7.84;82.64
71770;BME280;66386;52.122;5.420;2023-02-12T11:48:01;104084.31;;;7.88;82.33
71770;BME280;66386;52.122;5.420;2023-02-12T11:50:29;104091.25;;;7.92;82.47
71770;BME280;66386;52.122;5.420;2023-02-12T11:53:01;104089.63;;;7.95;82.62
71770;BME280;66386;52.122;5.420;2023-02-12T11:55:34;104089.66;;;7.97;82.07
71770;BME280;66386;52.122;5.420;2023-02-12T11:58:21;104087.06;;;7.95;81.78
71770;BME280;66386;52.122;5.420;2023-02-12T12:03:29;104087.97;;;7.97;81.56
71770;BME280;66386;52.122;5.420;2023-02-12T12:11:48;104082.06;;;8.00;80.96
71770;BME280;66386;52.122;5.420;2023-02-12T12:14:23;104077.84;;;8.02;80.54
71770;BME280;66386;52.122;5.420;2023-02-12T12:17:18;104070.22;;;8.03;80.35
71770;BME280;66386;52.122;5.420;2023-02-12T12:20:16;104069.53;;;8.11;80.82
71770;BME280;66386;52.122;5.420;2023-02-12T12:22:52;104064.53;;;8.15;80.54
71770;BME280;66386;52.122;5.420;2023-02-12T12:25:24;104063.75;;;8.18;80.12
71770;BME280;66386;52.122;5.420;2023-02-12T12:33:07;104057.78;;;8.19;80.03
71770;BME280;66386;52.122;5.420;2023-02-12T12:35:50;104056.09;;;8.19;79.57
71770;BME280;66386;52.122;5.420;2023-02-12T12:41:24;104060.34;;;8.19;79.35
71770;BME280;66386;52.122;5.420;2023-02-12T12:49:18;104049.31;;;8.21;79.12
71770;BME280;66386;52.122;5.420;2023-02-12T13:00:21;104047.69;;;8.25;78.88
71770;BME280;66386;52.122;5.420;2023-02-12T13:05:56;104046.03;;;8.27;78.77
71770;BME280;66386;52.122;5.420;2023-02-12T13:11:16;104038.38;;;8.29;78.64
71770;BME280;66386;52.122;5.420;2023-02-12T13:13:49;104031.56;;;8.31;78.66
71770;BME280;66386;52.122;5.420;2023-02-12T13:16:29;104028.22;;;8.33;78.73
71770;BME280;66386;52.122;5.420;2023-02-12T13:21:50;104029.09;;;8.32;78.40
71770;BME280;66386;52.122;5.420;2023-02-12T13:24:35;104026.59;;;8.35;78.35
71770;BME280;66386;52.122;5.420;2023-02-12T13:27:17;104028.22;;;8.33;78.42
71770;BME280;66386;52.122;5.420;2023-02-12T13:30:04;104018.03;;;8.36;78.43
71770;BME280;66386;52.122;5.420;2023-02-12T13:32:40;104022.25;;;8.33;78.13
71770;BME280;66386;52.122;5.420;2023-02-12T13:35:21;104024.00;;;8.34;78.35
71770;BME280;66386;52.122;5.420;2023-02-12T13:37:52;104027.41;;;8.34;78.25
71770;BME280;66386;52.122;5.420;2023-02-12T13:40:26;104023.16;;;8.36;78.34
71770;BME280;66386;52.122;5.420;2023-02-12T13:45:44;104009.53;;;8.37;78.37
71770;BME280;66386;52.122;5.420;2023-02-12T13:50:58;104012.06;;;8.36;78.29
71770;BME280;66386;52.122;5.420;2023-02-12T13:53:50;104005.22;;;8.36;78.38
71770;BME280;66386;52.122;5.420;2023-02-12T13:56:26;104006.91;;;8.34;78.08
71770;BME280;66386;52.122;5.420;2023-02-12T13:58:54;104002.56;;;8.32;78.08
71770;BME280;66386;52.122;5.420;2023-02-12T14:01:44;104006.84;;;8.31;78.15
71770;BME280;66386;52.122;5.420;2023-02-12T14:04:40;103998.22;;;8.29;77.80
71770;BME280;66386;52.122;5.420;2023-02-12T14:07:11;104011.03;;;8.29;77.78
71770;BME280;66386;52.122;5.420;2023-02-12T14:09:42;104004.22;;;8.28;78.02
71770;BME280;66386;52.122;5.420;2023-02-12T14:12:16;104002.53;;;8.30;78.10
71770;BME280;66386;52.122;5.420;2023-02-12T14:14:56;103996.53;;;8.28;78.08
71770;BME280;66386;52.122;5.420;2023-02-12T14:20:29;103986.22;;;8.27;78.28
71770;BME280;66386;52.122;5.420;2023-02-12T14:23:22;103992.16;;;8.24;78.20
71770;BME280;66386;52.122;5.420;2023-02-12T14:26:10;103986.88;;;8.18;77.79
71770;BME280;66386;52.122;5.420;2023-02-12T14:29:02;103991.03;;;8.14;78.02
71770;BME280;66386;52.122;5.420;2023-02-12T14:31:38;103991.94;;;8.15;78.04
71770;BME280;66386;52.122;5.420;2023-02-12T14:39:02;103989.34;;;8.13;78.10
71770;BME280;66386;52.122;5.420;2023-02-12T14:41:35;103991.75;;;8.09;78.11
71770;BME280;66386;52.122;5.420;2023-02-12T14:46:53;103986.63;;;8.09;77.91
71770;BME280;66386;52.122;5.420;2023-02-12T14:49:26;103985.72;;;8.05;77.66
71770;BME280;66386;52.122;5.420;2023-02-12T14:54:53;103980.31;;;7.94;77.29
71770;BME280;66386;52.122;5.420;2023-02-12T14:59:57;103982.78;;;7.91;77.70
71770;BME280;66386;52.122;5.420;2023-02-12T15:02:27;103985.31;;;7.90;77.78
71770;BME280;66386;52.122;5.420;2023-02-12T15:05:15;103979.25;;;7.86;77.97
71770;BME280;66386;52.122;5.420;2023-02-12T15:08:07;103990.38;;;7.86;78.08
71770;BME280;66386;52.122;5.420;2023-02-12T15:11:08;103991.25;;;7.87;78.00
71770;BME280;66386;52.122;5.420;2023-02-12T15:13:45;103983.50;;;7.85;78.34
71770;BME280;66386;52.122;5.420;2023-02-12T15:16:30;103983.50;;;7.85;78.14
71770;BME280;66386;52.122;5.420;2023-02-12T15:19:03;103988.75;;;7.90;78.37